Latest Weather Observations for Kurnell

IDN60901

Issued at 7:25 pm EDT Saturday 31 January 2015 (issued every 10 minutes, with the page automatically refreshed every 10 minutes)

About weather observations | Map of Sydney area stations | Latest observations for Sydney area | Other Formats
Station Details ID: 066043 Name: KURNELL AWS Lat: -34.00 Lon: 151.21 Height: 4.0 m
Data from the previous 72 hours. | See also: Recent months for locations in New South Wales
Date/Time
EDT
Tmp

°C
App
Tmp
°C
Dew
Point
°C
Rel
Hum
%
Delta-T

°C
Wind Press
QNH
hPa
Press
MSL
hPa
Rain
since
9 am
mm
Dir
 
Spd
km/h
Gust
km/h
Spd
kts
Gust
kts
31/07:00pm - - - - - SSE 13 17 7 9 - - -
31/06:30pm - - - - - SE 15 19 8 10 - - -
31/06:00pm - - - - - SE 17 20 9 11 - - -
31/05:30pm - - - - - SE 19 26 10 14 - - -
31/05:00pm - - - - - SSE 19 26 10 14 - - -
31/04:30pm - - - - - SE 17 24 9 13 - - -
31/04:00pm - - - - - SE 17 24 9 13 - - -
31/03:30pm - - - - - ESE 19 26 10 14 - - -
31/03:00pm - - - - - ESE 19 24 10 13 - - -
31/02:30pm - - - - - SE 19 26 10 14 - - -
31/02:00pm - - - - - SE 22 32 12 17 - - -
31/01:30pm - - - - - SE 20 28 11 15 - - -
31/01:00pm - - - - - SE 19 28 10 15 - - -
31/12:30pm - - - - - SSE 17 24 9 13 - - -
31/12:00pm - - - - - S 13 20 7 11 - - -
31/11:30am - - - - - SSE 15 20 8 11 - - -
31/11:00am - - - - - SSW 15 20 8 11 - - -
31/10:30am - - - - - SSW 13 17 7 9 - - -
31/10:00am - - - - - SSW 9 15 5 8 - - -
31/09:30am - - - - - SW 13 15 7 8 - - -
31/09:00am - - - - - W 11 13 6 7 - - -
31/08:30am - - - - - W 9 11 5 6 - - -
31/08:00am - - - - - W 9 9 5 5 - - -
31/07:30am - - - - - WNW 9 13 5 7 - - -
31/07:00am - - - - - SW 2 9 1 5 - - -
31/06:30am - - - - - S 7 9 4 5 - - -
31/06:00am - - - - - WSW 6 7 3 4 - - -
31/05:30am - - - - - WSW 11 13 6 7 - - -
31/05:00am - - - - - WSW 13 19 7 10 - - -
31/04:30am - - - - - WSW 13 15 7 8 - - -
31/04:00am - - - - - WSW 13 15 7 8 - - -
31/03:30am - - - - - SW 11 13 6 7 - - -
31/03:00am - - - - - SW 11 13 6 7 - - -
31/02:30am - - - - - SW 13 15 7 8 - - -
31/02:00am - - - - - WSW 13 15 7 8 - - -
31/01:30am - - - - - W 13 17 7 9 - - -
31/01:00am - - - - - W 17 19 9 10 - - -
31/12:30am - - - - - WSW 13 19 7 10 - - -
 
Date/Time
EDT
Tmp

°C
App
Tmp
°C
Dew
Point
°C
Rel
Hum
%
Delta-T

°C
Wind Press
QNH
hPa
Press
MSL
hPa
Rain
since
9 am
mm
Dir
 
Spd
km/h
Gust
km/h
Spd
kts
Gust
kts
30/11:30pm - - - - - SSW 26 32 14 17 - - -
30/11:00pm - - - - - SSW 26 37 14 20 - - -
30/10:30pm - - - - - S 24 35 13 19 - - -
30/10:00pm - - - - - SSW 30 39 16 21 - - -
30/09:30pm - - - - - S 30 37 16 20 - - -
30/09:00pm - - - - - SSW 30 39 16 21 - - -
30/08:30pm - - - - - S 30 43 16 23 - - -
30/08:00pm - - - - - S 30 39 16 21 - - -
30/07:30pm - - - - - S 30 37 16 20 - - -
30/07:00pm - - - - - SSW 30 41 16 22 - - -
30/06:30pm - - - - - SSW 26 32 14 17 - - -
30/06:00pm - - - - - SSW 22 32 12 17 - - -
30/05:30pm - - - - - S 22 30 12 16 - - -
30/05:00pm - - - - - S 20 28 11 15 - - -
30/04:30pm - - - - - SSE 19 28 10 15 - - -
30/04:00pm - - - - - S 24 32 13 17 - - -
30/03:30pm - - - - - S 24 32 13 17 - - -
30/03:00pm - - - - - S 24 33 13 18 - - -
30/02:30pm - - - - - S 26 32 14 17 - - -
30/02:00pm - - - - - S 32 39 17 21 - - -
30/01:30pm - - - - - SSW 33 41 18 22 - - -
30/01:00pm - - - - - SSW 33 48 18 26 - - -
30/12:30pm - - - - - SSW 33 44 18 24 - - -
30/12:00pm - - - - - SSW 26 35 14 19 - - -
30/11:30am - - - - - SSW 32 39 17 21 - - -
30/11:00am - - - - - SSW 30 39 16 21 - - -
30/10:30am - - - - - W 20 26 11 14 - - -
30/10:00am - - - - - W 17 26 9 14 - - -
30/09:30am - - - - - W 17 24 9 13 - - -
30/09:00am - - - - - W 26 30 14 16 - - -
30/08:30am - - - - - W 28 32 15 17 - - -
30/08:00am - - - - - W 30 33 16 18 - - -
30/07:30am - - - - - WNW 28 32 15 17 - - -
30/07:00am - - - - - W 26 28 14 15 - - -
30/06:30am - - - - - W 24 30 13 16 - - -
30/06:00am - - - - - W 28 32 15 17 - - -
30/05:30am - - - - - W 26 30 14 16 - - -
30/05:00am - - - - - WNW 22 26 12 14 - - -
30/04:30am - - - - - W 22 26 12 14 - - -
30/04:00am - - - - - W 24 26 13 14 - - -
30/03:30am - - - - - W 24 30 13 16 - - -
30/03:00am - - - - - W 26 30 14 16 - - -
30/02:30am - - - - - W 24 28 13 15 - - -
30/02:00am - - - - - W 22 28 12 15 - - -
30/01:30am - - - - - W 22 28 12 15 - - -
30/01:00am - - - - - W 26 30 14 16 - - -
30/12:30am - - - - - W 17 22 9 12 - - -
30/12:00am - - - - - WSW 19 26 10 14 - - -
 
Date/Time
EDT
Tmp

°C
App
Tmp
°C
Dew
Point
°C
Rel
Hum
%
Delta-T

°C
Wind Press
QNH
hPa
Press
MSL
hPa
Rain
since
9 am
mm
Dir
 
Spd
km/h
Gust
km/h
Spd
kts
Gust
kts
29/11:30pm - - - - - WSW 24 32 13 17 - - -
29/11:18pm - - - - - SW 32 50 17 27 - - -
29/11:00pm - - - - - SW 32 44 17 24 - - -
29/10:42pm - - - - - SW 32 50 17 27 - - -
29/10:30pm - - - - - SW 32 43 17 23 - - -
29/10:11pm - - - - - SW 33 52 18 28 - - -
29/10:00pm - - - - - SSW 35 46 19 25 - - -
29/09:31pm - - - - - SSW 43 61 23 33 - - -
29/09:30pm - - - - - SSW 43 56 23 30 - - -
29/09:06pm - - - - - SSW 37 57 20 31 - - -
29/09:00pm - - - - - SW 35 52 19 28 - - -
29/08:32pm - - - - - SSW 43 61 23 33 - - -
29/08:30pm - - - - - SSW 44 61 24 33 - - -
29/08:29pm - - - - - SSW 43 61 23 33 - - -
29/08:00pm - - - - - SSW 41 57 22 31 - - -
29/07:30pm - - - - - SSW 37 56 20 30 - - -
29/07:03pm - - - - - SSW 39 57 21 31 - - -
29/07:00pm - - - - - SSW 41 57 22 31 - - -
29/06:35pm - - - - - SSW 41 59 22 32 - - -
29/06:30pm - - - - - SSW 41 56 22 30 - - -
29/06:03pm - - - - - S 39 57 21 31 - - -
29/06:00pm - - - - - S 41 57 22 31 - - -
29/05:30pm - - - - - S 35 48 19 26 - - -
29/05:05pm - - - - - SSW 39 57 21 31 - - -
29/05:00pm - - - - - SSW 41 57 22 31 - - -
29/04:32pm - - - - - S 41 59 22 32 - - -
29/04:30pm - - - - - SSW 43 59 23 32 - - -
29/04:04pm - - - - - SSW 41 61 22 33 - - -
29/04:00pm - - - - - SSW 41 56 22 30 - - -
29/03:30pm - - - - - SSW 41 54 22 29 - - -
29/03:01pm - - - - - SSW 41 59 22 32 - - -
29/03:00pm - - - - - SSW 41 56 22 30 - - -
29/02:30pm - - - - - SSW 43 61 23 33 - - -
29/02:00pm - - - - - SSW 43 59 23 32 - - -
29/01:30pm - - - - - SSW 35 48 19 26 - - -
29/01:00pm - - - - - SSW 37 50 20 27 - - -
29/12:30pm - - - - - SSW 35 52 19 28 - - -
29/12:02pm - - - - - SW 41 59 22 32 - - -
29/12:00pm - - - - - SSW 39 54 21 29 - - -
29/11:51am - - - - - SSW 39 57 21 31 - - -
29/11:30am - - - - - SSW 37 54 20 29 - - -
29/11:00am - - - - - SSW 37 52 20 28 - - -
29/10:56am - - - - - SSW 37 56 20 30 - - -
29/10:30am - - - - - SW 41 56 22 30 - - -
29/10:00am - - - - - SW 41 54 22 29 - - -
29/09:47am - - - - - SW 39 57 21 31 - - -
29/09:30am - - - - - SW 39 52 21 28 - - -
29/09:00am - - - - - SW 41 57 22 31 - - -
29/08:44am - - - - - SW 37 56 20 30 - - -
29/08:30am - - - - - SW 37 54 20 29 - - -
29/08:00am - - - - - SW 39 54 21 29 - - -
29/07:30am - - - - - SW 37 56 20 30 - - -
29/07:00am - - - - - SW 35 54 19 29 - - -
29/06:59am - - - - - SW 35 54 19 29 - - -
29/06:30am - - - - - SW 39 54 21 29 - - -
29/06:00am - - - - - SW 37 56 20 30 - - -
29/05:30am - - - - - SW 35 56 19 30 - - -
29/05:26am - - - - - SW 35 56 19 30 - - -
29/05:00am - - - - - SW 30 41 16 22 - - -
29/04:30am - - - - - SW 32 41 17 22 - - -
29/04:21am - - - - - SW 32 50 17 27 - - -
29/04:00am - - - - - SW 35 48 19 26 - - -
29/03:30am - - - - - SW 35 46 19 25 - - -
29/03:00am - - - - - SW 35 52 19 28 - - -
29/02:40am - - - - - SW 32 50 17 27 - - -
29/02:30am - - - - - SW 28 37 15 20 - - -
29/02:00am - - - - - SW 33 48 18 26 - - -
29/01:30am - - - - - SW 39 52 21 28 - - -
29/01:01am - - - - - SW 32 52 17 28 - - -
29/01:00am - - - - - SW 32 41 17 22 - - -
29/12:30am - - - - - SSW 35 52 19 28 - - -
29/12:24am - - - - - SSW 33 52 18 28 - - -
29/12:00am - - - - - SSW 35 44 19 24 - - -
 
Date/Time
EDT
Tmp

°C
App
Tmp
°C
Dew
Point
°C
Rel
Hum
%
Delta-T

°C
Wind Press
QNH
hPa
Press
MSL
hPa
Rain
since
9 am
mm
Dir
 
Spd
km/h
Gust
km/h
Spd
kts
Gust
kts
28/11:30pm - - - - - SW 30 39 16 21 - - -
28/11:00pm - - - - - SW 33 43 18 23 - - -
28/10:30pm - - - - - SSW 37 56 20 30 - - -
28/10:26pm - - - - - SSW 35 56 19 30 - - -
28/10:00pm - - - - - SW 28 35 15 19 - - -
28/09:30pm - - - - - SW 20 35 11 19 - - -
28/09:00pm - - - - - SW 22 28 12 15 - - -
28/08:30pm - - - - - SSW 30 44 16 24 - - -
28/08:00pm - - - - - S 32 46 17 25 - - -
28/07:30pm - - - - - SW 28 37 15 20 - - -

Latest Capital City Observations: Canberra | Sydney | Melbourne | Brisbane | Adelaide | Perth | Hobart | Darwin

Other Formats:

Comma delimited format used in spreadsheet applications
http://www.bom.gov.au/fwo/IDN60901/IDN60901.95756.axf

JavaScript Object Notation format (JSON) in row-major order
http://www.bom.gov.au/fwo/IDN60901/IDN60901.95756.json